sensor_id;sensor_type;location;lat;lon;timestamp;pressure;altitude;pressure_sealevel;temperature
20733;BMP180;10527;52.124;5.196;2023-03-23T00:01:55;99992.00;;;22.60
20733;BMP180;10527;52.124;5.196;2023-03-23T00:04:21;100000.00;;;22.60
20733;BMP180;10527;52.124;5.196;2023-03-23T00:06:47;100001.00;;;22.60
20733;BMP180;10527;52.124;5.196;2023-03-23T00:09:14;100001.00;;;22.60
20733;BMP180;10527;52.124;5.196;2023-03-23T00:11:41;99995.00;;;22.60
20733;BMP180;10527;52.124;5.196;2023-03-23T00:14:09;100003.00;;;22.60
20733;BMP180;10527;52.124;5.196;2023-03-23T00:16:40;99998.00;;;22.60
20733;BMP180;10527;52.124;5.196;2023-03-23T00:19:12;99998.00;;;22.60
20733;BMP180;10527;52.124;5.196;2023-03-23T00:21:41;100000.00;;;22.60
20733;BMP180;10527;52.124;5.196;2023-03-23T00:24:17;99986.00;;;22.70
20733;BMP180;10527;52.124;5.196;2023-03-23T00:26:48;99991.00;;;22.70
20733;BMP180;10527;52.124;5.196;2023-03-23T00:29:21;99982.00;;;22.70
20733;BMP180;10527;52.124;5.196;2023-03-23T00:31:48;99994.00;;;22.70
20733;BMP180;10527;52.124;5.196;2023-03-23T00:34:17;99985.00;;;22.70
20733;BMP180;10527;52.124;5.196;2023-03-23T00:36:54;99969.00;;;22.70
20733;BMP180;10527;52.124;5.196;2023-03-23T00:39:24;99967.00;;;22.70
20733;BMP180;10527;52.124;5.196;2023-03-23T00:41:51;99956.00;;;22.70
20733;BMP180;10527;52.124;5.196;2023-03-23T00:44:17;99965.00;;;22.70
20733;BMP180;10527;52.124;5.196;2023-03-23T00:46:44;99961.00;;;22.70
20733;BMP180;10527;52.124;5.196;2023-03-23T00:49:20;99964.00;;;22.70
20733;BMP180;10527;52.124;5.196;2023-03-23T00:51:55;99953.00;;;22.70
20733;BMP180;10527;52.124;5.196;2023-03-23T00:54:22;99960.00;;;22.80
20733;BMP180;10527;52.124;5.196;2023-03-23T00:56:50;99955.00;;;22.80
20733;BMP180;10527;52.124;5.196;2023-03-23T00:59:16;99956.00;;;22.80
20733;BMP180;10527;52.124;5.196;2023-03-23T01:01:42;99947.00;;;22.80
20733;BMP180;10527;52.124;5.196;2023-03-23T01:04:08;99944.00;;;22.80
20733;BMP180;10527;52.124;5.196;2023-03-23T01:06:41;99936.00;;;22.80
20733;BMP180;10527;52.124;5.196;2023-03-23T01:09:12;99941.00;;;22.90
20733;BMP180;10527;52.124;5.196;2023-03-23T01:11:42;99938.00;;;22.80
20733;BMP180;10527;52.124;5.196;2023-03-23T01:14:10;99936.00;;;22.90
20733;BMP180;10527;52.124;5.196;2023-03-23T01:16:36;99949.00;;;22.80
20733;BMP180;10527;52.124;5.196;2023-03-23T01:19:02;99952.00;;;22.80
20733;BMP180;10527;52.124;5.196;2023-03-23T01:21:29;99946.00;;;22.80
20733;BMP180;10527;52.124;5.196;2023-03-23T01:23:55;99926.00;;;22.80
20733;BMP180;10527;52.124;5.196;2023-03-23T01:26:25;99922.00;;;22.80
20733;BMP180;10527;52.124;5.196;2023-03-23T01:28:52;99917.00;;;22.90
20733;BMP180;10527;52.124;5.196;2023-03-23T01:31:22;99920.00;;;22.90
20733;BMP180;10527;52.124;5.196;2023-03-23T01:33:50;99912.00;;;22.90
20733;BMP180;10527;52.124;5.196;2023-03-23T01:36:24;99914.00;;;22.90
20733;BMP180;10527;52.124;5.196;2023-03-23T01:38:52;99920.00;;;22.90
20733;BMP180;10527;52.124;5.196;2023-03-23T01:41:21;99910.00;;;22.90
20733;BMP180;10527;52.124;5.196;2023-03-23T01:44:59;99905.00;;;22.90
20733;BMP180;10527;52.124;5.196;2023-03-23T01:46:52;99920.00;;;22.80
20733;BMP180;10527;52.124;5.196;2023-03-23T01:49:27;99914.00;;;22.90
20733;BMP180;10527;52.124;5.196;2023-03-23T01:52:08;99908.00;;;22.90
20733;BMP180;10527;52.124;5.196;2023-03-23T01:54:37;99912.00;;;22.80
20733;BMP180;10527;52.124;5.196;2023-03-23T01:57:15;99916.00;;;22.90
20733;BMP180;10527;52.124;5.196;2023-03-23T01:59:44;99902.00;;;22.80
20733;BMP180;10527;52.124;5.196;2023-03-23T02:02:12;99904.00;;;22.80
20733;BMP180;10527;52.124;5.196;2023-03-23T02:04:41;99903.00;;;22.90
20733;BMP180;10527;52.124;5.196;2023-03-23T02:07:08;99890.00;;;22.90
20733;BMP180;10527;52.124;5.196;2023-03-23T02:09:35;99882.00;;;22.80
20733;BMP180;10527;52.124;5.196;2023-03-23T02:12:01;99894.00;;;22.90
20733;BMP180;10527;52.124;5.196;2023-03-23T02:14:28;99899.00;;;22.90
20733;BMP180;10527;52.124;5.196;2023-03-23T02:17:11;99895.00;;;22.90
20733;BMP180;10527;52.124;5.196;2023-03-23T02:25:58;99908.00;;;22.90
20733;BMP180;10527;52.124;5.196;2023-03-23T02:34:44;99895.00;;;22.80
20733;BMP180;10527;52.124;5.196;2023-03-23T02:37:24;99901.00;;;22.80
20733;BMP180;10527;52.124;5.196;2023-03-23T02:40:05;99904.00;;;22.90
20733;BMP180;10527;52.124;5.196;2023-03-23T02:42:41;99906.00;;;22.90
20733;BMP180;10527;52.124;5.196;2023-03-23T02:45:11;99905.00;;;22.90
20733;BMP180;10527;52.124;5.196;2023-03-23T02:47:40;99907.00;;;22.90
20733;BMP180;10527;52.124;5.196;2023-03-23T02:50:14;99901.00;;;22.90
20733;BMP180;10527;52.124;5.196;2023-03-23T02:52:44;99898.00;;;22.90
20733;BMP180;10527;52.124;5.196;2023-03-23T02:55:12;99899.00;;;22.90
20733;BMP180;10527;52.124;5.196;2023-03-23T02:57:39;99892.00;;;22.90
20733;BMP180;10527;52.124;5.196;2023-03-23T03:00:08;99898.00;;;23.00
20733;BMP180;10527;52.124;5.196;2023-03-23T03:03:04;99887.00;;;23.00
20733;BMP180;10527;52.124;5.196;2023-03-23T03:05:52;99895.00;;;23.00
20733;BMP180;10527;52.124;5.196;2023-03-23T03:11:10;99887.00;;;23.00
20733;BMP180;10527;52.124;5.196;2023-03-23T03:14:04;99898.00;;;23.00
20733;BMP180;10527;52.124;5.196;2023-03-23T03:16:46;99889.00;;;23.00
20733;BMP180;10527;52.124;5.196;2023-03-23T03:19:24;99884.00;;;23.00
20733;BMP180;10527;52.124;5.196;2023-03-23T03:21:53;99880.00;;;23.00
20733;BMP180;10527;52.124;5.196;2023-03-23T03:24:24;99876.00;;;23.00
20733;BMP180;10527;52.124;5.196;2023-03-23T03:26:54;99896.00;;;23.00
20733;BMP180;10527;52.124;5.196;2023-03-23T03:29:32;99881.00;;;23.00
20733;BMP180;10527;52.124;5.196;2023-03-23T03:32:03;99883.00;;;23.00
20733;BMP180;10527;52.124;5.196;2023-03-23T03:34:33;99872.00;;;23.00
20733;BMP180;10527;52.124;5.196;2023-03-23T03:36:59;99858.00;;;23.00
20733;BMP180;10527;52.124;5.196;2023-03-23T03:39:27;99856.00;;;23.00
20733;BMP180;10527;52.124;5.196;2023-03-23T03:41:54;99865.00;;;23.00
20733;BMP180;10527;52.124;5.196;2023-03-23T03:44:20;99854.00;;;23.10
20733;BMP180;10527;52.124;5.196;2023-03-23T03:46:46;99871.00;;;23.10
20733;BMP180;10527;52.124;5.196;2023-03-23T03:49:12;99880.00;;;23.10
20733;BMP180;10527;52.124;5.196;2023-03-23T03:51:39;99868.00;;;23.10
20733;BMP180;10527;52.124;5.196;2023-03-23T03:54:06;99878.00;;;23.10
20733;BMP180;10527;52.124;5.196;2023-03-23T03:56:32;99867.00;;;23.10
20733;BMP180;10527;52.124;5.196;2023-03-23T03:59:03;99858.00;;;23.10
20733;BMP180;10527;52.124;5.196;2023-03-23T04:01:29;99869.00;;;23.10
20733;BMP180;10527;52.124;5.196;2023-03-23T04:03:54;99871.00;;;23.10
20733;BMP180;10527;52.124;5.196;2023-03-23T04:06:21;99871.00;;;23.10
20733;BMP180;10527;52.124;5.196;2023-03-23T04:08:47;99877.00;;;23.10
20733;BMP180;10527;52.124;5.196;2023-03-23T04:11:15;99869.00;;;23.10
20733;BMP180;10527;52.124;5.196;2023-03-23T04:13:41;99871.00;;;23.10
20733;BMP180;10527;52.124;5.196;2023-03-23T04:16:08;99879.00;;;23.10
20733;BMP180;10527;52.124;5.196;2023-03-23T04:18:35;99906.00;;;23.10
20733;BMP180;10527;52.124;5.196;2023-03-23T04:21:02;99889.00;;;23.10
20733;BMP180;10527;52.124;5.196;2023-03-23T04:23:30;99894.00;;;23.10
20733;BMP180;10527;52.124;5.196;2023-03-23T04:25:59;99891.00;;;23.10
20733;BMP180;10527;52.124;5.196;2023-03-23T04:28:26;99872.00;;;23.10
20733;BMP180;10527;52.124;5.196;2023-03-23T04:30:54;99891.00;;;23.10
20733;BMP180;10527;52.124;5.196;2023-03-23T04:33:25;99895.00;;;23.20
20733;BMP180;10527;52.124;5.196;2023-03-23T04:35:58;99890.00;;;23.10
20733;BMP180;10527;52.124;5.196;2023-03-23T04:38:28;99892.00;;;23.10
20733;BMP180;10527;52.124;5.196;2023-03-23T04:40:55;99898.00;;;23.20
20733;BMP180;10527;52.124;5.196;2023-03-23T04:43:23;99917.00;;;23.20
20733;BMP180;10527;52.124;5.196;2023-03-23T04:45:58;99910.00;;;23.20
20733;BMP180;10527;52.124;5.196;2023-03-23T04:48:26;99925.00;;;23.10
20733;BMP180;10527;52.124;5.196;2023-03-23T04:50:55;99913.00;;;23.10
20733;BMP180;10527;52.124;5.196;2023-03-23T04:53:22;99927.00;;;23.10
20733;BMP180;10527;52.124;5.196;2023-03-23T04:55:48;99920.00;;;23.10
20733;BMP180;10527;52.124;5.196;2023-03-23T04:58:16;99928.00;;;23.10
20733;BMP180;10527;52.124;5.196;2023-03-23T05:00:44;99929.00;;;23.10
20733;BMP180;10527;52.124;5.196;2023-03-23T05:03:19;99932.00;;;23.10
20733;BMP180;10527;52.124;5.196;2023-03-23T05:05:46;99940.00;;;23.10
20733;BMP180;10527;52.124;5.196;2023-03-23T05:08:22;99916.00;;;23.10
20733;BMP180;10527;52.124;5.196;2023-03-23T05:10:57;99930.00;;;23.00
20733;BMP180;10527;52.124;5.196;2023-03-23T05:13:24;99941.00;;;23.00
20733;BMP180;10527;52.124;5.196;2023-03-23T05:15:50;99935.00;;;23.00
20733;BMP180;10527;52.124;5.196;2023-03-23T05:18:16;99937.00;;;22.90
20733;BMP180;10527;52.124;5.196;2023-03-23T05:20:43;99952.00;;;22.90
20733;BMP180;10527;52.124;5.196;2023-03-23T05:23:10;99965.00;;;22.80
20733;BMP180;10527;52.124;5.196;2023-03-23T05:25:37;99932.00;;;22.70
20733;BMP180;10527;52.124;5.196;2023-03-23T05:28:07;99957.00;;;22.60
20733;BMP180;10527;52.124;5.196;2023-03-23T05:30:34;99962.00;;;22.50
20733;BMP180;10527;52.124;5.196;2023-03-23T05:33:00;99964.00;;;22.40
20733;BMP180;10527;52.124;5.196;2023-03-23T05:35:26;99959.00;;;22.30
20733;BMP180;10527;52.124;5.196;2023-03-23T05:37:52;99961.00;;;22.20
20733;BMP180;10527;52.124;5.196;2023-03-23T05:40:19;99970.00;;;22.20
20733;BMP180;10527;52.124;5.196;2023-03-23T05:42:47;99973.00;;;22.20
20733;BMP180;10527;52.124;5.196;2023-03-23T05:45:13;99959.00;;;22.10
20733;BMP180;10527;52.124;5.196;2023-03-23T05:47:40;99955.00;;;22.10
20733;BMP180;10527;52.124;5.196;2023-03-23T05:50:08;99952.00;;;22.10
20733;BMP180;10527;52.124;5.196;2023-03-23T05:52:35;99970.00;;;22.10
20733;BMP180;10527;52.124;5.196;2023-03-23T05:55:03;99987.00;;;22.10
20733;BMP180;10527;52.124;5.196;2023-03-23T05:57:30;99980.00;;;22.10
20733;BMP180;10527;52.124;5.196;2023-03-23T05:59:56;99975.00;;;22.00
20733;BMP180;10527;52.124;5.196;2023-03-23T06:02:24;99968.00;;;22.00
20733;BMP180;10527;52.124;5.196;2023-03-23T06:04:53;99974.00;;;22.00
20733;BMP180;10527;52.124;5.196;2023-03-23T06:07:24;99970.00;;;21.90
20733;BMP180;10527;52.124;5.196;2023-03-23T06:09:52;99966.00;;;21.90
20733;BMP180;10527;52.124;5.196;2023-03-23T06:12:18;99987.00;;;21.90
20733;BMP180;10527;52.124;5.196;2023-03-23T06:14:47;99990.00;;;21.90
20733;BMP180;10527;52.124;5.196;2023-03-23T06:17:15;100001.00;;;21.90
20733;BMP180;10527;52.124;5.196;2023-03-23T06:19:49;100006.00;;;21.80
20733;BMP180;10527;52.124;5.196;2023-03-23T06:22:17;100004.00;;;21.80
20733;BMP180;10527;52.124;5.196;2023-03-23T06:24:44;100010.00;;;21.80
20733;BMP180;10527;52.124;5.196;2023-03-23T06:27:11;100003.00;;;21.80
20733;BMP180;10527;52.124;5.196;2023-03-23T06:29:40;100015.00;;;21.80
20733;BMP180;10527;52.124;5.196;2023-03-23T06:32:05;100019.00;;;21.80
20733;BMP180;10527;52.124;5.196;2023-03-23T06:34:31;100026.00;;;21.80
20733;BMP180;10527;52.124;5.196;2023-03-23T06:37:00;100035.00;;;21.80
20733;BMP180;10527;52.124;5.196;2023-03-23T06:39:27;100025.00;;;21.80
20733;BMP180;10527;52.124;5.196;2023-03-23T06:41:53;100032.00;;;21.80
20733;BMP180;10527;52.124;5.196;2023-03-23T06:44:19;100034.00;;;21.80
20733;BMP180;10527;52.124;5.196;2023-03-23T06:46:45;100025.00;;;21.80
20733;BMP180;10527;52.124;5.196;2023-03-23T06:49:11;100035.00;;;21.80
20733;BMP180;10527;52.124;5.196;2023-03-23T06:51:37;100034.00;;;21.80
20733;BMP180;10527;52.124;5.196;2023-03-23T06:54:04;100037.00;;;21.80
20733;BMP180;10527;52.124;5.196;2023-03-23T06:56:31;100037.00;;;21.80
20733;BMP180;10527;52.124;5.196;2023-03-23T06:58:57;100031.00;;;21.90
20733;BMP180;10527;52.124;5.196;2023-03-23T07:01:23;100037.00;;;21.90
20733;BMP180;10527;52.124;5.196;2023-03-23T07:03:49;100041.00;;;21.90
20733;BMP180;10527;52.124;5.196;2023-03-23T07:06:15;100038.00;;;21.90
20733;BMP180;10527;52.124;5.196;2023-03-23T07:08:43;100031.00;;;22.00
20733;BMP180;10527;52.124;5.196;2023-03-23T07:11:09;100037.00;;;22.00
20733;BMP180;10527;52.124;5.196;2023-03-23T07:13:36;100047.00;;;22.00
20733;BMP180;10527;52.124;5.196;2023-03-23T07:16:05;100044.00;;;22.00
20733;BMP180;10527;52.124;5.196;2023-03-23T07:18:32;100056.00;;;22.00
20733;BMP180;10527;52.124;5.196;2023-03-23T07:20:58;100043.00;;;22.00
20733;BMP180;10527;52.124;5.196;2023-03-23T07:23:25;100043.00;;;22.00
20733;BMP180;10527;52.124;5.196;2023-03-23T07:25:51;100054.00;;;22.00
20733;BMP180;10527;52.124;5.196;2023-03-23T07:28:17;100051.00;;;22.10
20733;BMP180;10527;52.124;5.196;2023-03-23T07:30:45;100050.00;;;22.10
20733;BMP180;10527;52.124;5.196;2023-03-23T07:33:11;100052.00;;;22.10
20733;BMP180;10527;52.124;5.196;2023-03-23T07:35:39;100057.00;;;22.20
20733;BMP180;10527;52.124;5.196;2023-03-23T07:38:06;100056.00;;;22.20
20733;BMP180;10527;52.124;5.196;2023-03-23T07:40:33;100069.00;;;22.20
20733;BMP180;10527;52.124;5.196;2023-03-23T07:43:00;100082.00;;;22.20
20733;BMP180;10527;52.124;5.196;2023-03-23T07:45:27;100088.00;;;22.20
20733;BMP180;10527;52.124;5.196;2023-03-23T07:47:53;100078.00;;;22.20
20733;BMP180;10527;52.124;5.196;2023-03-23T07:50:20;100064.00;;;22.20
20733;BMP180;10527;52.124;5.196;2023-03-23T07:52:48;100064.00;;;22.20
20733;BMP180;10527;52.124;5.196;2023-03-23T07:55:13;100053.00;;;22.30
20733;BMP180;10527;52.124;5.196;2023-03-23T07:57:45;100051.00;;;22.30
20733;BMP180;10527;52.124;5.196;2023-03-23T08:00:11;100057.00;;;22.30
20733;BMP180;10527;52.124;5.196;2023-03-23T08:02:46;100062.00;;;22.30
20733;BMP180;10527;52.124;5.196;2023-03-23T08:05:13;100080.00;;;22.40
20733;BMP180;10527;52.124;5.196;2023-03-23T08:07:40;100069.00;;;22.40
20733;BMP180;10527;52.124;5.196;2023-03-23T08:10:08;100085.00;;;22.40
20733;BMP180;10527;52.124;5.196;2023-03-23T08:12:39;100084.00;;;22.40
20733;BMP180;10527;52.124;5.196;2023-03-23T08:15:07;100080.00;;;22.40
20733;BMP180;10527;52.124;5.196;2023-03-23T08:17:34;100084.00;;;22.40
20733;BMP180;10527;52.124;5.196;2023-03-23T08:20:01;100087.00;;;22.40
20733;BMP180;10527;52.124;5.196;2023-03-23T08:22:33;100088.00;;;22.50
20733;BMP180;10527;52.124;5.196;2023-03-23T08:25:03;100081.00;;;22.50
20733;BMP180;10527;52.124;5.196;2023-03-23T08:27:29;100087.00;;;22.50
20733;BMP180;10527;52.124;5.196;2023-03-23T08:29:56;100087.00;;;22.60
20733;BMP180;10527;52.124;5.196;2023-03-23T08:32:23;100088.00;;;22.60
20733;BMP180;10527;52.124;5.196;2023-03-23T08:34:49;100094.00;;;22.60
20733;BMP180;10527;52.124;5.196;2023-03-23T08:37:15;100102.00;;;22.60
20733;BMP180;10527;52.124;5.196;2023-03-23T08:39:42;100099.00;;;22.60
20733;BMP180;10527;52.124;5.196;2023-03-23T08:42:10;100100.00;;;22.70
20733;BMP180;10527;52.124;5.196;2023-03-23T08:44:36;100106.00;;;22.70
20733;BMP180;10527;52.124;5.196;2023-03-23T08:47:03;100105.00;;;22.70
20733;BMP180;10527;52.124;5.196;2023-03-23T08:49:31;100109.00;;;22.70
20733;BMP180;10527;52.124;5.196;2023-03-23T08:52:00;100109.00;;;22.80
20733;BMP180;10527;52.124;5.196;2023-03-23T08:54:26;100120.00;;;22.80
20733;BMP180;10527;52.124;5.196;2023-03-23T08:56:52;100117.00;;;22.80
20733;BMP180;10527;52.124;5.196;2023-03-23T08:59:18;100124.00;;;22.90
20733;BMP180;10527;52.124;5.196;2023-03-23T09:01:44;100117.00;;;23.00
20733;BMP180;10527;52.124;5.196;2023-03-23T09:04:11;100120.00;;;23.10
20733;BMP180;10527;52.124;5.196;2023-03-23T09:06:37;100125.00;;;23.20
20733;BMP180;10527;52.124;5.196;2023-03-23T09:09:04;100125.00;;;23.30
20733;BMP180;10527;52.124;5.196;2023-03-23T09:11:33;100125.00;;;23.40
20733;BMP180;10527;52.124;5.196;2023-03-23T09:14:00;100125.00;;;23.40
20733;BMP180;10527;52.124;5.196;2023-03-23T09:16:27;100126.00;;;23.40
20733;BMP180;10527;52.124;5.196;2023-03-23T09:18:54;100128.00;;;23.50
20733;BMP180;10527;52.124;5.196;2023-03-23T09:21:20;100115.00;;;23.70
20733;BMP180;10527;52.124;5.196;2023-03-23T09:23:47;100125.00;;;23.80
20733;BMP180;10527;52.124;5.196;2023-03-23T09:26:14;100135.00;;;24.10
20733;BMP180;10527;52.124;5.196;2023-03-23T09:28:41;100124.00;;;24.30
20733;BMP180;10527;52.124;5.196;2023-03-23T09:31:06;100126.00;;;24.40
20733;BMP180;10527;52.124;5.196;2023-03-23T09:33:33;100119.00;;;24.40
20733;BMP180;10527;52.124;5.196;2023-03-23T09:35:59;100129.00;;;24.50
20733;BMP180;10527;52.124;5.196;2023-03-23T09:38:25;100140.00;;;24.50
20733;BMP180;10527;52.124;5.196;2023-03-23T09:41:11;100150.00;;;24.60
20733;BMP180;10527;52.124;5.196;2023-03-23T09:49:48;100139.00;;;24.80
20733;BMP180;10527;52.124;5.196;2023-03-23T09:52:18;100141.00;;;24.80
20733;BMP180;10527;52.124;5.196;2023-03-23T09:54:53;100146.00;;;24.80
20733;BMP180;10527;52.124;5.196;2023-03-23T10:00:34;100158.00;;;24.70
20733;BMP180;10527;52.124;5.196;2023-03-23T10:03:24;100164.00;;;24.70
20733;BMP180;10527;52.124;5.196;2023-03-23T10:05:53;100162.00;;;24.80
20733;BMP180;10527;52.124;5.196;2023-03-23T10:08:30;100179.00;;;24.80
20733;BMP180;10527;52.124;5.196;2023-03-23T10:14:32;100170.00;;;25.00
20733;BMP180;10527;52.124;5.196;2023-03-23T10:19:49;100192.00;;;25.00
20733;BMP180;10527;52.124;5.196;2023-03-23T10:22:32;100183.00;;;25.10
20733;BMP180;10527;52.124;5.196;2023-03-23T10:28:35;100181.00;;;25.10
20733;BMP180;10527;52.124;5.196;2023-03-23T10:31:04;100185.00;;;25.10
20733;BMP180;10527;52.124;5.196;2023-03-23T10:33:48;100187.00;;;25.20
20733;BMP180;10527;52.124;5.196;2023-03-23T10:36:36;100203.00;;;25.20
20733;BMP180;10527;52.124;5.196;2023-03-23T10:39:20;100186.00;;;25.30
20733;BMP180;10527;52.124;5.196;2023-03-23T10:41:50;100186.00;;;25.30
20733;BMP180;10527;52.124;5.196;2023-03-23T10:44:24;100196.00;;;25.30
20733;BMP180;10527;52.124;5.196;2023-03-23T10:47:04;100193.00;;;25.20
20733;BMP180;10527;52.124;5.196;2023-03-23T10:49:58;100186.00;;;25.10
20733;BMP180;10527;52.124;5.196;2023-03-23T10:52:41;100182.00;;;25.00
20733;BMP180;10527;52.124;5.196;2023-03-23T10:55:13;100184.00;;;25.00
20733;BMP180;10527;52.124;5.196;2023-03-23T10:57:44;100180.00;;;24.90
20733;BMP180;10527;52.124;5.196;2023-03-23T11:02:47;100196.00;;;24.90
20733;BMP180;10527;52.124;5.196;2023-03-23T11:05:20;100202.00;;;24.90
20733;BMP180;10527;52.124;5.196;2023-03-23T11:07:56;100203.00;;;24.90
20733;BMP180;10527;52.124;5.196;2023-03-23T11:10:47;100199.00;;;24.90
20733;BMP180;10527;52.124;5.196;2023-03-23T11:13:17;100208.00;;;24.90
20733;BMP180;10527;52.124;5.196;2023-03-23T11:15:47;100213.00;;;24.90
20733;BMP180;10527;52.124;5.196;2023-03-23T11:18:21;100193.00;;;24.80
20733;BMP180;10527;52.124;5.196;2023-03-23T11:20:56;100193.00;;;24.80
20733;BMP180;10527;52.124;5.196;2023-03-23T11:23:35;100202.00;;;24.90
20733;BMP180;10527;52.124;5.196;2023-03-23T11:26:21;100187.00;;;24.90
20733;BMP180;10527;52.124;5.196;2023-03-23T11:29:25;100189.00;;;24.90
20733;BMP180;10527;52.124;5.196;2023-03-23T11:37:05;100193.00;;;25.10
20733;BMP180;10527;52.124;5.196;2023-03-23T11:40:14;100200.00;;;25.20
20733;BMP180;10527;52.124;5.196;2023-03-23T11:42:45;100201.00;;;25.30
20733;BMP180;10527;52.124;5.196;2023-03-23T11:45:40;100195.00;;;25.30
20733;BMP180;10527;52.124;5.196;2023-03-23T11:48:24;100199.00;;;25.30
20733;BMP180;10527;52.124;5.196;2023-03-23T11:53:48;100207.00;;;25.20
20733;BMP180;10527;52.124;5.196;2023-03-23T11:56:38;100206.00;;;25.10
20733;BMP180;10527;52.124;5.196;2023-03-23T11:59:17;100205.00;;;25.00
20733;BMP180;10527;52.124;5.196;2023-03-23T12:01:50;100203.00;;;24.90
20733;BMP180;10527;52.124;5.196;2023-03-23T12:08:47;100207.00;;;24.80
20733;BMP180;10527;52.124;5.196;2023-03-23T12:12:03;100203.00;;;24.70
20733;BMP180;10527;52.124;5.196;2023-03-23T12:20:26;100200.00;;;24.60
20733;BMP180;10527;52.124;5.196;2023-03-23T12:26:18;100203.00;;;24.70
20733;BMP180;10527;52.124;5.196;2023-03-23T12:34:43;100193.00;;;24.80
20733;BMP180;10527;52.124;5.196;2023-03-23T12:44:07;100178.00;;;24.90
20733;BMP180;10527;52.124;5.196;2023-03-23T12:47:03;100176.00;;;25.00
20733;BMP180;10527;52.124;5.196;2023-03-23T12:49:59;100185.00;;;25.00
20733;BMP180;10527;52.124;5.196;2023-03-23T12:58:36;100163.00;;;25.00
20733;BMP180;10527;52.124;5.196;2023-03-23T13:01:34;100163.00;;;25.00
20733;BMP180;10527;52.124;5.196;2023-03-23T13:04:21;100161.00;;;25.00
20733;BMP180;10527;52.124;5.196;2023-03-23T13:06:49;100166.00;;;25.00
20733;BMP180;10527;52.124;5.196;2023-03-23T13:09:45;100167.00;;;25.10
20733;BMP180;10527;52.124;5.196;2023-03-23T13:12:14;100185.00;;;25.10
20733;BMP180;10527;52.124;5.196;2023-03-23T13:23:50;100189.00;;;25.10
20733;BMP180;10527;52.124;5.196;2023-03-23T13:26:21;100193.00;;;25.20
20733;BMP180;10527;52.124;5.196;2023-03-23T13:29:00;100177.00;;;25.20
20733;BMP180;10527;52.124;5.196;2023-03-23T13:31:35;100177.00;;;25.30
20733;BMP180;10527;52.124;5.196;2023-03-23T13:34:29;100200.00;;;25.30
20733;BMP180;10527;52.124;5.196;2023-03-23T13:37:11;100196.00;;;25.40
20733;BMP180;10527;52.124;5.196;2023-03-23T13:40:17;100206.00;;;25.40
20733;BMP180;10527;52.124;5.196;2023-03-23T13:42:59;100184.00;;;25.40
20733;BMP180;10527;52.124;5.196;2023-03-23T13:48:21;100187.00;;;25.40
20733;BMP180;10527;52.124;5.196;2023-03-23T13:50:58;100194.00;;;25.50
20733;BMP180;10527;52.124;5.196;2023-03-23T13:53:45;100197.00;;;25.50
20733;BMP180;10527;52.124;5.196;2023-03-23T13:56:43;100203.00;;;25.40
20733;BMP180;10527;52.124;5.196;2023-03-23T13:59:28;100187.00;;;25.40
20733;BMP180;10527;52.124;5.196;2023-03-23T14:04:56;100177.00;;;25.30
20733;BMP180;10527;52.124;5.196;2023-03-23T14:07:22;100184.00;;;25.30
20733;BMP180;10527;52.124;5.196;2023-03-23T14:09:51;100211.00;;;25.30
20733;BMP180;10527;52.124;5.196;2023-03-23T14:12:21;100202.00;;;25.20
20733;BMP180;10527;52.124;5.196;2023-03-23T14:14:51;100183.00;;;25.20
20733;BMP180;10527;52.124;5.196;2023-03-23T14:17:27;100187.00;;;25.10
20733;BMP180;10527;52.124;5.196;2023-03-23T14:19:58;100202.00;;;25.10
20733;BMP180;10527;52.124;5.196;2023-03-23T14:22:34;100199.00;;;25.00
20733;BMP180;10527;52.124;5.196;2023-03-23T14:25:16;100203.00;;;25.00
20733;BMP180;10527;52.124;5.196;2023-03-23T14:27:44;100201.00;;;25.00
20733;BMP180;10527;52.124;5.196;2023-03-23T14:30:22;100199.00;;;25.10
20733;BMP180;10527;52.124;5.196;2023-03-23T14:32:48;100184.00;;;25.00
20733;BMP180;10527;52.124;5.196;2023-03-23T14:35:40;100163.00;;;25.00
20733;BMP180;10527;52.124;5.196;2023-03-23T14:38:18;100165.00;;;25.00
20733;BMP180;10527;52.124;5.196;2023-03-23T14:40:46;100161.00;;;25.00
20733;BMP180;10527;52.124;5.196;2023-03-23T14:43:19;100118.00;;;25.10
20733;BMP180;10527;52.124;5.196;2023-03-23T14:45:52;100128.00;;;25.20
20733;BMP180;10527;52.124;5.196;2023-03-23T14:48:19;100130.00;;;25.20
20733;BMP180;10527;52.124;5.196;2023-03-23T14:51:04;100128.00;;;25.30
20733;BMP180;10527;52.124;5.196;2023-03-23T14:53:38;100124.00;;;25.30
20733;BMP180;10527;52.124;5.196;2023-03-23T14:56:32;100112.00;;;25.40
20733;BMP180;10527;52.124;5.196;2023-03-23T14:59:05;100103.00;;;25.50
20733;BMP180;10527;52.124;5.196;2023-03-23T15:01:34;100115.00;;;25.60
20733;BMP180;10527;52.124;5.196;2023-03-23T15:04:12;100134.00;;;25.70
20733;BMP180;10527;52.124;5.196;2023-03-23T15:06:43;100131.00;;;25.70
20733;BMP180;10527;52.124;5.196;2023-03-23T15:09:17;100141.00;;;25.80
20733;BMP180;10527;52.124;5.196;2023-03-23T15:11:57;100143.00;;;25.80
20733;BMP180;10527;52.124;5.196;2023-03-23T15:14:36;100123.00;;;25.90
20733;BMP180;10527;52.124;5.196;2023-03-23T15:17:20;100131.00;;;25.90
20733;BMP180;10527;52.124;5.196;2023-03-23T15:19:46;100124.00;;;25.90
20733;BMP180;10527;52.124;5.196;2023-03-23T15:22:26;100111.00;;;26.00
20733;BMP180;10527;52.124;5.196;2023-03-23T15:25:03;100118.00;;;26.00
20733;BMP180;10527;52.124;5.196;2023-03-23T15:27:34;100093.00;;;26.00
20733;BMP180;10527;52.124;5.196;2023-03-23T15:33:08;100099.00;;;26.00
20733;BMP180;10527;52.124;5.196;2023-03-23T15:35:39;100092.00;;;26.00
20733;BMP180;10527;52.124;5.196;2023-03-23T15:38:28;100081.00;;;26.00
20733;BMP180;10527;52.124;5.196;2023-03-23T15:40:59;100082.00;;;26.00
20733;BMP180;10527;52.124;5.196;2023-03-23T15:43:48;100077.00;;;25.90
20733;BMP180;10527;52.124;5.196;2023-03-23T15:49:04;100088.00;;;26.00
20733;BMP180;10527;52.124;5.196;2023-03-23T15:51:32;100094.00;;;25.90
20733;BMP180;10527;52.124;5.196;2023-03-23T15:53:58;100091.00;;;25.90
20733;BMP180;10527;52.124;5.196;2023-03-23T15:56:25;100076.00;;;25.90
20733;BMP180;10527;52.124;5.196;2023-03-23T15:58:52;100080.00;;;25.90
20733;BMP180;10527;52.124;5.196;2023-03-23T16:01:27;100078.00;;;25.90
20733;BMP180;10527;52.124;5.196;2023-03-23T16:04:14;100073.00;;;25.90
20733;BMP180;10527;52.124;5.196;2023-03-23T16:06:42;100074.00;;;25.90